Time;durP1;ratioP1;P1;durP2;ratioP2;P2;SDS_P1;SDS_P2;PMS_P1;PMS_P2;Temp;Humidity;BMP_temperature;BMP_pressure;BME280_temperature;BME280_humidity;BME280_pressure;Samples;Min_cycle;Max_cycle;Signal;HPM_P1;HPM_P2
2021/09/28 00:00:18;;;;;;;24.03;20.07;;;;;;;19.78;nan;101136.41;5093250;28;20174;-73
2021/09/28 00:02:44;;;;;;;27.47;21.47;;;;;;;19.64;nan;101134.88;5091695;28;20217;-73
2021/09/28 00:05:09;;;;;;;26.27;20.70;;;;;;;19.60;nan;101133.44;5093362;28;20170;-73
2021/09/28 00:07:34;;;;;;;26.53;21.13;;;;;;;19.36;nan;101128.25;5093657;28;20205;-73
2021/09/28 00:10:00;;;;;;;25.03;21.03;;;;;;;19.68;nan;101130.06;5093635;28;20220;-74
2021/09/28 00:12:25;;;;;;;23.50;20.47;;;;;;;19.66;nan;101121.19;5092261;28;20190;-74
2021/09/28 00:14:50;;;;;;;28.00;21.57;;;;;;;19.40;nan;101123.44;5093328;28;20635;-73
2021/09/28 00:17:16;;;;;;;25.40;21.30;;;;;;;19.37;nan;101123.69;5093432;28;20170;-74
2021/09/28 00:19:41;;;;;;;25.43;21.27;;;;;;;19.39;nan;101129.84;5093186;28;20170;-73
2021/09/28 00:22:07;;;;;;;25.83;21.77;;;;;;;19.27;nan;101129.00;5093409;28;20228;-74
2021/09/28 00:24:34;;;;;;;25.73;21.57;;;;;;;19.57;nan;101136.41;5074878;28;20239;-72
2021/09/28 00:27:00;;;;;;;24.67;20.17;;;;;;;19.65;nan;101136.59;5093313;28;20178;-73
2021/09/28 00:29:25;;;;;;;23.20;19.77;;;;;;;19.51;nan;101134.19;5092046;28;20171;-72
2021/09/28 00:31:50;;;;;;;23.30;20.40;;;;;;;19.34;nan;101140.19;5091999;28;20194;-74
2021/09/28 00:34:16;;;;;;;22.13;19.73;;;;;;;19.33;nan;101138.47;5093027;28;20211;-73
2021/09/28 00:36:41;;;;;;;24.93;20.07;;;;;;;19.81;nan;101140.69;5092949;28;20181;-73
2021/09/28 00:39:06;;;;;;;23.90;20.60;;;;;;;19.46;nan;101141.00;5074994;28;20170;-73
2021/09/28 00:41:31;;;;;;;25.17;20.37;;;;;;;19.41;nan;101152.22;5091436;28;20212;-76
2021/09/28 00:43:58;;;;;;;23.73;21.17;;;;;;;19.61;nan;101159.50;5092733;28;20194;-75
2021/09/28 00:46:24;;;;;;;25.80;20.50;;;;;;;19.89;nan;101149.88;5093186;28;20255;-75
2021/09/28 00:48:50;;;;;;;24.03;20.30;;;;;;;19.83;nan;101146.84;5091692;28;20171;-77
2021/09/28 00:51:16;;;;;;;20.97;18.77;;;;;;;20.17;nan;101156.44;5091602;28;20171;-77
2021/09/28 00:53:42;;;;;;;28.73;22.10;;;;;;;20.20;nan;101152.59;5091721;28;20166;-76
2021/09/28 00:56:09;;;;;;;25.00;19.37;;;;;;;20.14;nan;101156.72;5093030;28;20163;-76
2021/09/28 00:58:35;;;;;;;21.93;19.33;;;;;;;19.97;nan;101160.03;5095363;28;20194;-75
2021/09/28 01:01:03;;;;;;;26.57;18.63;;;;;;;19.92;nan;101154.16;5078293;28;20174;-76
2021/09/28 01:03:31;;;;;;;23.30;19.67;;;;;;;19.86;nan;101160.97;5095534;28;20319;-76
2021/09/28 01:05:56;;;;;;;25.57;19.67;;;;;;;19.77;nan;101169.03;5078490;28;20174;-76
2021/09/28 01:08:21;;;;;;;23.23;20.33;;;;;;;19.85;nan;101166.53;5096634;28;20174;-75
2021/09/28 01:10:47;;;;;;;22.43;18.80;;;;;;;19.80;nan;101174.19;5095367;28;20215;-76
2021/09/28 01:13:12;;;;;;;23.13;19.80;;;;;;;19.83;nan;101168.50;5096232;28;20239;-76
2021/09/28 01:15:37;;;;;;;25.17;19.30;;;;;;;19.73;nan;101162.19;5095661;28;20170;-73
2021/09/28 01:18:03;;;;;;;25.97;19.77;;;;;;;19.71;nan;101167.72;5096480;28;20201;-75
2021/09/28 01:20:28;;;;;;;24.27;19.33;;;;;;;19.58;nan;101178.72;5095220;28;20550;-75
2021/09/28 01:22:54;;;;;;;26.07;19.03;;;;;;;19.50;nan;101183.06;5094868;28;20850;-75
2021/09/28 01:25:19;;;;;;;22.30;18.20;;;;;;;19.47;nan;101176.06;5077886;28;20579;-76
2021/09/28 01:27:44;;;;;;;23.87;19.23;;;;;;;19.66;nan;101173.50;5094765;28;20670;-75
2021/09/28 01:30:10;;;;;;;22.13;19.23;;;;;;;19.62;nan;101177.47;5094725;28;20257;-75
2021/09/28 01:32:38;;;;;;;20.00;18.00;;;;;;;19.63;nan;101171.06;5077781;28;20217;-75
2021/09/28 01:35:04;;;;;;;24.23;18.63;;;;;;;19.67;nan;101177.06;5095944;28;20166;-74
2021/09/28 01:37:29;;;;;;;25.87;19.47;;;;;;;19.68;nan;101182.34;5094746;28;20219;-75
2021/09/28 01:39:55;;;;;;;22.13;19.37;;;;;;;19.59;nan;101183.16;5094682;28;20174;-74
2021/09/28 01:42:20;;;;;;;21.83;18.43;;;;;;;19.61;nan;101185.72;5095708;28;20201;-75
2021/09/28 01:44:45;;;;;;;23.67;19.03;;;;;;;19.50;nan;101186.63;5095979;28;20190;-75
2021/09/28 01:47:11;;;;;;;19.90;17.50;;;;;;;19.73;nan;101194.66;5096280;28;20189;-75
2021/09/28 01:49:36;;;;;;;21.20;17.70;;;;;;;19.72;nan;101192.97;5078696;28;20182;-75
2021/09/28 01:52:02;;;;;;;23.80;18.87;;;;;;;19.76;nan;101191.69;5077740;28;20202;-75
2021/09/28 01:54:27;;;;;;;22.13;17.00;;;;;;;19.63;nan;101192.72;5094834;28;20619;-75
2021/09/28 01:56:53;;;;;;;21.67;18.27;;;;;;;19.66;nan;101186.19;5094156;28;20178;-74
2021/09/28 01:59:18;;;;;;;28.03;19.50;;;;;;;19.60;nan;101187.56;5094853;28;20166;-73
2021/09/28 02:01:43;;;;;;;22.57;18.43;;;;;;;19.67;nan;101187.91;5095315;28;20205;-74
2021/09/28 02:04:08;;;;;;;22.40;18.23;;;;;;;19.64;nan;101180.03;5098262;28;20208;-75
2021/09/28 02:06:37;;;;;;;24.40;18.60;;;;;;;19.66;nan;101186.19;5096280;28;20655;-74
2021/09/28 02:09:04;;;;;;;21.00;17.97;;;;;;;19.60;nan;101190.28;5095015;28;20192;-75
2021/09/28 02:11:30;;;;;;;21.00;18.40;;;;;;;19.70;nan;101178.66;5094656;28;20702;-74
2021/09/28 02:13:59;;;;;;;19.27;17.07;;;;;;;19.70;nan;101173.25;5077465;28;20170;-75
2021/09/28 02:16:26;;;;;;;22.17;18.93;;;;;;;19.55;nan;101175.44;5095291;28;20177;-75
2021/09/28 02:18:51;;;;;;;22.30;18.07;;;;;;;19.65;nan;101171.78;5095181;28;20174;-74
2021/09/28 02:21:16;;;;;;;25.03;21.43;;;;;;;19.61;nan;101175.75;5077460;28;20180;-74
2021/09/28 02:23:42;;;;;;;26.23;20.53;;;;;;;19.64;nan;101172.78;5077270;28;20190;-75
2021/09/28 02:26:08;;;;;;;21.40;18.33;;;;;;;19.61;nan;101181.16;5095671;28;20179;-74
2021/09/28 02:28:34;;;;;;;21.40;18.47;;;;;;;19.58;nan;101173.31;5094967;28;20167;-75
2021/09/28 02:31:00;;;;;;;25.63;18.50;;;;;;;19.64;nan;101177.34;5092504;28;20192;-74
2021/09/28 02:33:26;;;;;;;21.80;18.77;;;;;;;19.58;nan;101173.31;5094293;28;20240;-75
2021/09/28 02:35:51;;;;;;;26.23;20.50;;;;;;;19.67;nan;101172.53;5095302;28;20178;-74
2021/09/28 02:38:17;;;;;;;26.73;22.60;;;;;;;19.66;nan;101178.94;5095947;28;20565;-75
2021/09/28 02:40:42;;;;;;;23.93;19.90;;;;;;;19.61;nan;101181.16;5079071;28;20556;-75
2021/09/28 02:43:09;;;;;;;23.77;19.53;;;;;;;19.69;nan;101177.81;5097894;28;20563;-74
2021/09/28 02:45:34;;;;;;;26.13;19.93;;;;;;;19.57;nan;101184.28;5080158;28;20206;-75
2021/09/28 02:47:59;;;;;;;24.90;20.07;;;;;;;19.50;nan;101178.50;5094113;28;20202;-75
2021/09/28 02:50:25;;;;;;;25.37;20.17;;;;;;;19.45;nan;101172.63;5094747;28;20174;-75
2021/09/28 02:52:50;;;;;;;24.10;20.10;;;;;;;19.34;nan;101169.97;5093485;28;20194;-76
2021/09/28 02:55:15;;;;;;;24.33;20.13;;;;;;;19.29;nan;101169.47;5094458;28;20197;-75
2021/09/28 02:57:41;;;;;;;31.67;18.60;;;;;;;19.30;nan;101160.34;5094568;28;20170;-74
2021/09/28 03:00:07;;;;;;;25.97;19.70;;;;;;;19.24;nan;101169.84;5093702;28;20170;-74
2021/09/28 03:02:33;;;;;;;25.43;20.43;;;;;;;19.28;nan;101178.56;5099295;23;20227;-71
2021/09/28 03:04:58;;;;;;;24.57;20.53;;;;;;;19.20;nan;101179.22;5053709;28;20199;-72
2021/09/28 03:07:24;;;;;;;27.93;20.70;;;;;;;19.30;nan;101187.41;5052648;28;20630;-71
2021/09/28 03:09:49;;;;;;;29.07;22.50;;;;;;;19.30;nan;101198.25;5052578;28;20180;-71
2021/09/28 03:12:14;;;;;;;29.67;22.83;;;;;;;19.33;nan;101192.59;5052706;28;20199;-71
2021/09/28 03:14:39;;;;;;;22.17;18.63;;;;;;;19.29;nan;101197.38;5052885;28;20206;-71
2021/09/28 03:17:05;;;;;;;24.50;20.00;;;;;;;19.29;nan;101207.34;5035758;28;20179;-71
2021/09/28 03:19:31;;;;;;;26.93;20.37;;;;;;;19.39;nan;101205.63;5051838;28;20198;-71
2021/09/28 03:21:57;;;;;;;22.87;18.87;;;;;;;19.44;nan;101200.66;5035608;28;20233;-71
2021/09/28 03:24:22;;;;;;;24.80;19.00;;;;;;;19.52;nan;101203.59;5052435;28;20200;-71
2021/09/28 03:26:47;;;;;;;24.87;18.30;;;;;;;19.56;nan;101210.50;5053465;28;20235;-72
2021/09/28 03:29:13;;;;;;;21.90;18.27;;;;;;;19.55;nan;101207.91;5036027;28;20664;-72
2021/09/28 03:31:38;;;;;;;23.97;19.13;;;;;;;19.46;nan;101209.53;5052148;28;20194;-72
2021/09/28 03:34:04;;;;;;;23.33;18.33;;;;;;;19.52;nan;101214.41;5052453;28;20186;-72
2021/09/28 03:36:29;;;;;;;20.57;18.00;;;;;;;19.43;nan;101207.06;5053343;28;20176;-71
2021/09/28 03:38:54;;;;;;;25.13;19.63;;;;;;;19.39;nan;101216.44;5035445;28;20218;-72
2021/09/28 03:41:20;;;;;;;23.90;18.27;;;;;;;19.43;nan;101220.59;5052361;28;20198;-72
2021/09/28 03:43:45;;;;;;;21.23;18.00;;;;;;;19.26;nan;101216.59;5051977;28;20195;-72
2021/09/28 03:46:10;;;;;;;22.77;18.30;;;;;;;19.36;nan;101227.53;5035479;28;20278;-72
2021/09/28 03:48:36;;;;;;;23.43;18.13;;;;;;;19.42;nan;101227.00;5052178;28;20175;-72
2021/09/28 03:51:01;;;;;;;22.20;18.23;;;;;;;19.44;nan;101230.44;5052361;28;20175;-71
2021/09/28 03:53:26;;;;;;;23.93;18.17;;;;;;;19.47;nan;101224.78;5051912;28;20203;-71
2021/09/28 03:55:51;;;;;;;23.00;18.50;;;;;;;19.31;nan;101227.03;5052041;28;20526;-71
2021/09/28 03:58:17;;;;;;;26.33;18.40;;;;;;;19.22;nan;101228.66;5035822;28;20214;-72
2021/09/28 04:00:43;;;;;;;20.53;17.07;;;;;;;18.93;nan;101231.03;5051996;28;20649;-71
2021/09/28 04:03:09;;;;;;;21.73;17.03;;;;;;;18.86;nan;101240.66;5051776;28;20215;-71
2021/09/28 04:05:34;;;;;;;18.37;13.83;;;;;;;18.69;nan;101242.03;5051914;28;20601;-70
2021/09/28 04:08:00;;;;;;;14.43;11.00;;;;;;;18.28;nan;101237.19;5052921;28;20649;-71
2021/09/28 04:10:25;;;;;;;9.70;6.63;;;;;;;17.81;nan;101228.22;5052119;28;20179;-72
2021/09/28 04:12:51;;;;;;;8.60;6.37;;;;;;;18.44;nan;101236.81;5051958;28;20558;-72
2021/09/28 04:15:19;;;;;;;9.47;5.23;;;;;;;18.17;nan;101234.44;5052299;28;20633;-71
2021/09/28 04:17:45;;;;;;;9.13;4.80;;;;;;;17.93;nan;101236.38;5052418;28;20206;-71
2021/09/28 04:20:10;;;;;;;6.40;4.13;;;;;;;17.68;nan;101243.66;5052308;28;20626;-71
2021/09/28 04:22:35;;;;;;;5.80;4.17;;;;;;;17.77;nan;101248.34;5053052;28;20203;-72
2021/09/28 04:25:05;;;;;;;6.07;3.53;;;;;;;17.75;nan;101252.13;5034872;28;20210;-72
2021/09/28 04:27:30;;;;;;;7.33;3.43;;;;;;;17.41;nan;101240.28;5052691;28;20179;-72
2021/09/28 04:29:56;;;;;;;5.23;2.90;;;;;;;17.67;nan;101252.72;5051571;28;20178;-72
2021/09/28 04:32:21;;;;;;;9.83;3.10;;;;;;;17.34;nan;101256.06;5055154;28;20591;-72
2021/09/28 04:34:46;;;;;;;6.33;3.20;;;;;;;17.10;nan;101269.56;5055586;28;20175;-72
2021/09/28 04:37:12;;;;;;;7.20;2.57;;;;;;;17.38;nan;101276.47;5055464;28;20175;-72
2021/09/28 04:39:37;;;;;;;7.93;2.90;;;;;;;17.78;nan;101278.88;5072339;28;20182;-72
2021/09/28 04:42:03;;;;;;;7.53;2.60;;;;;;;17.58;nan;101277.69;5038785;28;20202;-72
2021/09/28 04:44:28;;;;;;;10.20;2.40;;;;;;;17.94;nan;101289.41;5056574;28;20210;-71
2021/09/28 04:46:54;;;;;;;8.30;2.83;;;;;;;17.75;nan;101280.00;5055568;28;20183;-70
2021/09/28 04:49:19;;;;;;;8.80;2.37;;;;;;;17.65;nan;101287.03;5055225;28;20240;-71
2021/09/28 04:51:44;;;;;;;7.37;2.17;;;;;;;17.36;nan;101283.81;5039264;28;20225;-72
2021/09/28 04:54:10;;;;;;;7.10;2.43;;;;;;;17.57;nan;101299.38;5039632;28;20176;-72
2021/09/28 04:56:36;;;;;;;6.27;1.80;;;;;;;17.05;nan;101284.31;5056045;28;20183;-72
2021/09/28 04:59:02;;;;;;;7.47;2.00;;;;;;;17.62;nan;101298.06;5072603;28;20244;-72
2021/09/28 05:01:27;;;;;;;7.80;1.90;;;;;;;17.42;nan;101306.78;5055562;28;20592;-73
2021/09/28 05:03:53;;;;;;;11.93;2.00;;;;;;;17.02;nan;101304.28;5054832;28;20295;-72
2021/09/28 05:06:19;;;;;;;6.20;1.87;;;;;;;17.33;nan;101299.38;5055056;28;20183;-70
2021/09/28 05:08:44;;;;;;;10.07;2.03;;;;;;;17.42;nan;101301.38;5055031;28;20298;-72
2021/09/28 05:11:11;;;;;;;5.07;1.60;;;;;;;17.38;nan;101306.13;5055489;28;20199;-71
2021/09/28 05:13:37;;;;;;;8.93;2.27;;;;;;;16.99;nan;101309.06;5055115;28;20195;-72
2021/09/28 05:16:03;;;;;;;9.10;2.27;;;;;;;17.07;nan;101310.22;5054989;28;20175;-72
2021/09/28 05:18:28;;;;;;;6.77;2.03;;;;;;;17.38;nan;101313.38;5055063;28;20184;-72
2021/09/28 05:20:53;;;;;;;8.23;2.20;;;;;;;17.26;nan;101325.94;5056296;28;20183;-73
2021/09/28 05:23:19;;;;;;;8.67;1.60;;;;;;;17.11;nan;101338.72;5054555;28;20672;-73
2021/09/28 05:25:44;;;;;;;7.83;1.97;;;;;;;17.48;nan;101327.94;5055855;28;20262;-72
2021/09/28 05:28:09;;;;;;;6.40;1.60;;;;;;;17.64;nan;101320.41;5055230;28;20178;-72
2021/09/28 05:30:35;;;;;;;7.50;1.90;;;;;;;17.32;nan;101338.97;5054504;28;20191;-73
2021/09/28 05:33:00;;;;;;;10.67;2.13;;;;;;;17.55;nan;101334.59;5054822;28;20595;-73
2021/09/28 05:35:25;;;;;;;9.57;1.90;;;;;;;17.28;nan;101336.59;5054618;28;20175;-73
2021/09/28 05:37:52;;;;;;;10.90;1.73;;;;;;;16.93;nan;101331.06;5054194;28;20188;-73
2021/09/28 05:40:18;;;;;;;10.10;2.03;;;;;;;17.02;nan;101339.34;5054509;28;20168;-73
2021/09/28 05:42:43;;;;;;;7.60;1.77;;;;;;;17.49;nan;101341.31;5037127;28;20245;-72
2021/09/28 05:45:08;;;;;;;7.00;1.83;;;;;;;17.18;nan;101334.59;5055272;28;20577;-69
2021/09/28 05:47:34;;;;;;;10.73;2.00;;;;;;;17.06;nan;101340.00;5054516;28;20290;-67
2021/09/28 05:49:59;;;;;;;12.60;2.07;;;;;;;17.03;nan;101356.38;5055488;28;20234;-66
2021/09/28 05:52:24;;;;;;;8.30;2.30;;;;;;;17.68;nan;101359.72;5054527;28;20245;-64
2021/09/28 05:54:49;;;;;;;6.90;1.70;;;;;;;17.72;nan;101346.84;5038348;28;20306;-66
2021/09/28 05:57:15;;;;;;;7.17;1.70;;;;;;;17.90;nan;101350.88;5054148;28;20171;-66
2021/09/28 05:59:41;;;;;;;10.77;1.90;;;;;;;17.68;nan;101351.63;5053969;28;20581;-66
2021/09/28 06:02:06;;;;;;;12.10;1.80;;;;;;;17.58;nan;101361.34;5055127;28;20223;-65
2021/09/28 06:04:32;;;;;;;9.77;2.10;;;;;;;17.69;nan;101363.28;5054159;28;20191;-66
2021/09/28 06:06:58;;;;;;;10.43;2.10;;;;;;;17.71;nan;101361.31;5055913;28;20267;-68
2021/09/28 06:09:23;;;;;;;11.40;2.33;;;;;;;17.99;nan;101366.38;5060990;28;20207;-71
2021/09/28 06:11:49;;;;;;;10.70;2.00;;;;;;;18.03;nan;101367.88;5066016;28;20203;-71
2021/09/28 06:14:14;;;;;;;8.97;1.80;;;;;;;18.04;nan;101366.03;5066861;28;20175;-71
2021/09/28 06:16:39;;;;;;;12.73;1.87;;;;;;;18.13;nan;101373.44;5063007;28;20175;-72
2021/09/28 06:19:05;;;;;;;9.53;2.47;;;;;;;18.09;nan;101377.34;5054021;28;20179;-70
2021/09/28 06:21:30;;;;;;;9.87;1.90;;;;;;;17.91;nan;101381.44;5054245;28;20180;-71
2021/09/28 06:23:55;;;;;;;12.17;2.40;;;;;;;17.94;nan;101378.50;5053253;28;20677;-71
2021/09/28 06:26:21;;;;;;;14.40;2.83;;;;;;;17.74;nan;101388.09;5054118;28;20190;-72
2021/09/28 06:28:46;;;;;;;8.90;2.13;;;;;;;17.69;nan;101391.13;5054737;28;20208;-72
2021/09/28 06:31:11;;;;;;;10.80;2.37;;;;;;;17.57;nan;101402.81;5053579;28;20201;-73
2021/09/28 06:33:37;;;;;;;7.93;2.03;;;;;;;17.70;nan;101397.38;5053462;28;20188;-72
2021/09/28 06:36:02;;;;;;;10.73;2.00;;;;;;;17.57;nan;101393.84;5053647;28;20183;-72
2021/09/28 06:38:27;;;;;;;8.60;2.10;;;;;;;17.60;nan;101402.59;5054551;28;20183;-71
2021/09/28 06:40:53;;;;;;;13.13;2.00;;;;;;;17.69;nan;101407.34;5053317;28;20472;-73
2021/09/28 06:43:18;;;;;;;12.00;2.70;;;;;;;17.48;nan;101417.84;5036500;28;20233;-72
2021/09/28 06:45:44;;;;;;;10.33;2.13;;;;;;;17.28;nan;101410.31;5053198;28;20176;-72
2021/09/28 06:48:09;;;;;;;13.43;2.23;;;;;;;17.78;nan;101420.13;5054206;28;20580;-72
2021/09/28 06:50:34;;;;;;;9.37;2.30;;;;;;;17.76;nan;101422.09;5053116;28;20172;-72
2021/09/28 06:52:59;;;;;;;12.07;1.87;;;;;;;17.38;nan;101418.59;5053623;28;20195;-71
2021/09/28 06:55:25;;;;;;;10.27;1.87;;;;;;;17.46;nan;101432.38;5069751;28;20253;-72
2021/09/28 06:57:50;;;;;;;9.00;2.03;;;;;;;17.54;nan;101430.03;5036828;28;20171;-72
2021/09/28 07:00:15;;;;;;;11.27;1.97;;;;;;;17.59;nan;101432.38;5052856;28;20179;-72
2021/09/28 07:02:41;;;;;;;11.33;1.83;;;;;;;17.76;nan;101438.28;5052693;28;20203;-71
2021/09/28 07:05:11;;;;;;;11.00;2.20;;;;;;;17.67;nan;101438.97;5052731;28;20203;-72
2021/09/28 07:07:36;;;;;;;8.47;1.93;;;;;;;17.68;nan;101442.53;5053288;28;20178;-72
2021/09/28 07:10:01;;;;;;;8.57;2.13;;;;;;;17.31;nan;101449.69;5052833;28;20172;-71
2021/09/28 07:12:27;;;;;;;12.03;2.03;;;;;;;17.24;nan;101451.09;5054186;28;20208;-72
2021/09/28 07:14:52;;;;;;;13.40;2.03;;;;;;;16.43;nan;101472.88;5053364;28;20167;-73
2021/09/28 07:17:17;;;;;;;9.73;2.17;;;;;;;16.90;nan;101474.19;5053903;28;20245;-72
2021/09/28 07:19:43;;;;;;;11.60;2.27;;;;;;;16.64;nan;101471.41;5052391;28;20229;-72
2021/09/28 07:22:08;;;;;;;16.20;2.77;;;;;;;17.02;nan;101479.56;5052418;28;20191;-72
2021/09/28 07:24:33;;;;;;;14.60;2.40;;;;;;;17.04;nan;101480.31;5064986;28;20207;-72
2021/09/28 07:26:58;;;;;;;10.60;2.03;;;;;;;16.81;nan;101473.00;5053234;28;20203;-70
2021/09/28 07:29:24;;;;;;;15.00;2.00;;;;;;;16.30;nan;101488.97;5053040;28;20175;-71
2021/09/28 07:31:49;;;;;;;13.40;2.50;;;;;;;16.72;nan;101489.75;5054887;28;20241;-72
2021/09/28 07:34:14;;;;;;;11.67;2.47;;;;;;;17.15;nan;101493.94;5055024;28;20190;-71
2021/09/28 07:36:40;;;;;;;12.97;2.60;;;;;;;17.29;nan;101492.09;5053557;28;20568;-72
2021/09/28 07:39:05;;;;;;;16.30;1.87;;;;;;;17.10;nan;101490.72;5052135;28;20180;-71
2021/09/28 07:41:31;;;;;;;11.13;2.47;;;;;;;17.11;nan;101499.66;5052094;28;20239;-72
2021/09/28 07:43:56;;;;;;;10.50;2.10;;;;;;;17.19;nan;101500.00;5035456;28;20196;-71
2021/09/28 07:46:21;;;;;;;8.90;1.90;;;;;;;16.85;nan;101498.75;5052089;28;20171;-71
2021/09/28 07:48:48;;;;;;;12.30;2.40;;;;;;;17.08;nan;101507.94;5051987;28;20175;-72
2021/09/28 07:51:14;;;;;;;9.10;1.90;;;;;;;16.97;nan;101511.38;5052038;28;20176;-71
2021/09/28 07:53:39;;;;;;;15.33;2.07;;;;;;;16.86;nan;101512.13;5051835;28;20187;-72
2021/09/28 07:56:05;;;;;;;13.33;2.90;;;;;;;16.92;nan;101516.25;5052087;28;20179;-71
2021/09/28 07:58:30;;;;;;;21.93;3.03;;;;;;;16.73;nan;101522.03;5051926;28;20338;-71
2021/09/28 08:00:56;;;;;;;11.20;1.90;;;;;;;16.58;nan;101510.41;5051974;28;20176;-70
2021/09/28 08:03:22;;;;;;;12.83;2.07;;;;;;;16.44;nan;101502.41;5051428;28;20227;-72
2021/09/28 08:05:49;;;;;;;12.03;1.83;;;;;;;16.66;nan;101512.63;5068157;28;20537;-72
2021/09/28 08:08:14;;;;;;;9.90;1.77;;;;;;;16.63;nan;101501.16;5051622;28;20171;-71
2021/09/28 08:10:40;;;;;;;9.83;1.67;;;;;;;17.12;nan;101528.38;5051613;28;20182;-72
2021/09/28 08:13:05;;;;;;;10.13;1.97;;;;;;;17.24;nan;101524.81;5052732;28;20205;-72
2021/09/28 08:15:35;;;;;;;10.00;2.20;;;;;;;17.33;nan;101529.56;5051628;28;20261;-71
2021/09/28 08:18:00;;;;;;;12.60;2.20;;;;;;;17.22;nan;101531.28;5051596;28;20182;-71
2021/09/28 08:20:26;;;;;;;10.13;2.37;;;;;;;16.78;nan;101532.50;5051625;28;20180;-72
2021/09/28 08:22:51;;;;;;;12.53;2.80;;;;;;;16.77;nan;101541.56;5051494;28;20203;-72
2021/09/28 08:25:20;;;;;;;19.40;2.50;;;;;;;16.96;nan;101550.13;5051447;28;20238;-72
2021/09/28 08:30:29;;;;;;;10.93;2.10;;;;;;;17.13;nan;101548.97;5053124;28;20167;-73
2021/09/28 08:32:54;;;;;;;14.17;2.67;;;;;;;17.39;nan;101552.53;5051975;28;20195;-73
2021/09/28 08:35:19;;;;;;;12.40;2.73;;;;;;;17.22;nan;101547.47;5051622;28;20172;-72
2021/09/28 08:37:45;;;;;;;20.03;2.93;;;;;;;17.65;nan;101556.97;5051609;28;20565;-72
2021/09/28 08:40:14;;;;;;;10.67;2.70;;;;;;;17.37;nan;101543.69;5052753;28;20175;-71
2021/09/28 08:42:40;;;;;;;13.43;3.20;;;;;;;17.46;nan;101551.13;5035085;28;20203;-73
2021/09/28 08:45:06;;;;;;;15.50;3.03;;;;;;;17.34;nan;101552.00;5051548;28;20207;-73
2021/09/28 08:47:37;;;;;;;20.07;2.97;;;;;;;17.47;nan;101558.28;5051641;28;20258;-71
2021/09/28 08:50:04;;;;;;;19.93;3.10;;;;;;;17.61;nan;101558.16;5051779;28;20203;-71
2021/09/28 08:52:30;;;;;;;17.17;2.80;;;;;;;17.80;nan;101558.59;5052729;28;20194;-70
2021/09/28 08:54:56;;;;;;;14.03;3.13;;;;;;;17.76;nan;101545.44;5052985;28;20168;-73
2021/09/28 08:57:21;;;;;;;11.20;2.53;;;;;;;18.00;nan;101557.16;5051349;28;20206;-73
2021/09/28 08:59:50;;;;;;;13.37;2.50;;;;;;;18.33;nan;101556.53;5051629;28;20184;-73
2021/09/28 09:02:15;;;;;;;8.63;2.40;;;;;;;18.38;nan;101553.50;5069331;23;20207;-76
2021/09/28 09:04:42;;;;;;;10.80;2.73;;;;;;;18.35;nan;101540.22;5054815;28;20248;-76
2021/09/28 09:07:21;;;;;;;11.23;2.27;;;;;;;17.75;nan;101522.97;5054496;28;20190;-77
2021/09/28 09:09:47;;;;;;;10.90;2.10;;;;;;;18.53;nan;101533.41;5054250;28;20232;-75
2021/09/28 09:12:13;;;;;;;17.20;2.90;;;;;;;18.35;nan;101541.06;5054424;28;20174;-75
2021/09/28 09:14:40;;;;;;;12.13;2.10;;;;;;;17.62;nan;101524.78;5054510;28;20525;-75
2021/09/28 09:17:05;;;;;;;10.53;2.40;;;;;;;17.68;nan;101531.63;5055979;28;20178;-74
2021/09/28 09:19:32;;;;;;;16.67;2.30;;;;;;;17.67;nan;101528.06;5057990;28;20175;-75
2021/09/28 09:22:04;;;;;;;14.77;2.37;;;;;;;18.42;nan;101531.53;5075597;28;20548;-75
2021/09/28 09:24:49;;;;;;;12.63;2.43;;;;;;;18.28;nan;101534.41;5058997;28;20236;-75
2021/09/28 09:27:27;;;;;;;12.20;2.37;;;;;;;19.36;nan;101539.66;5058545;28;20178;-76
2021/09/28 09:30:08;;;;;;;15.57;2.17;;;;;;;19.34;nan;101529.94;5058276;28;20167;-74
2021/09/28 09:32:51;;;;;;;12.27;1.90;;;;;;;19.84;nan;101533.16;5041399;28;20195;-76
2021/09/28 09:35:22;;;;;;;12.43;2.07;;;;;;;19.55;nan;101521.97;5075793;28;20209;-75
2021/09/28 09:37:47;;;;;;;13.93;2.60;;;;;;;19.74;nan;101513.25;5057924;28;20649;-75
2021/09/28 09:40:12;;;;;;;12.17;2.07;;;;;;;20.41;nan;101532.09;5058052;28;20171;-76
2021/09/28 09:42:53;;;;;;;8.93;1.87;;;;;;;20.71;nan;101528.69;5057953;28;20195;-75
2021/09/28 09:45:23;;;;;;;9.57;2.03;;;;;;;21.21;nan;101521.66;5058031;28;20220;-75
2021/09/28 09:47:49;;;;;;;11.50;2.57;;;;;;;19.98;nan;101484.13;5057905;28;20183;-75
2021/09/28 09:50:17;;;;;;;9.23;1.80;;;;;;;21.11;nan;101504.44;5058136;28;20182;-75
2021/09/28 09:52:57;;;;;;;10.17;2.30;;;;;;;19.23;nan;101490.16;5075712;28;20211;-74
2021/09/28 09:55:31;;;;;;;10.13;2.00;;;;;;;19.17;nan;101501.47;5059477;28;20644;-74
2021/09/28 09:57:56;;;;;;;10.53;2.50;;;;;;;19.82;nan;101522.47;5059021;28;20179;-75
2021/09/28 10:00:22;;;;;;;6.97;1.80;;;;;;;20.35;nan;101513.63;5057889;28;20175;-74
2021/09/28 10:02:48;;;;;;;8.67;1.77;;;;;;;20.79;nan;101516.19;5057016;28;20319;-75
2021/09/28 10:05:14;;;;;;;8.30;1.80;;;;;;;20.28;nan;101494.28;5057161;28;20234;-75
2021/09/28 10:07:39;;;;;;;10.77;1.77;;;;;;;20.61;nan;101498.78;5057262;28;20186;-75
2021/09/28 10:10:09;;;;;;;11.83;2.33;;;;;;;20.26;nan;101518.81;5057396;28;20658;-74
2021/09/28 10:12:35;;;;;;;9.50;2.10;;;;;;;20.53;nan;101514.84;5057335;28;20610;-75
2021/09/28 10:15:11;;;;;;;7.53;1.87;;;;;;;19.51;nan;101502.38;5056691;28;20178;-75
2021/09/28 10:17:39;;;;;;;13.63;2.40;;;;;;;20.07;nan;101510.50;5075476;28;20285;-75
2021/09/28 10:20:07;;;;;;;8.53;1.70;;;;;;;20.47;nan;101493.66;5057447;28;20196;-75
2021/09/28 10:22:36;;;;;;;11.00;3.20;;;;;;;21.21;nan;101502.66;5057303;28;20655;-76
2021/09/28 10:25:19;;;;;;;15.43;4.00;;;;;;;22.00;nan;101501.03;5074629;28;20195;-75
2021/09/28 10:27:45;;;;;;;10.00;2.37;;;;;;;21.38;nan;101493.91;5074828;28;20560;-76
2021/09/28 10:30:31;;;;;;;12.57;1.77;;;;;;;20.98;nan;101482.94;5039504;28;20224;-76
2021/09/28 10:32:57;;;;;;;12.40;3.57;;;;;;;20.58;nan;101478.19;5074316;28;20214;-76
2021/09/28 10:35:23;;;;;;;10.20;1.97;;;;;;;18.98;nan;101482.25;5039835;28;20194;-76
2021/09/28 10:37:53;;;;;;;9.13;1.70;;;;;;;19.42;nan;101486.88;5040049;28;20175;-76
2021/09/28 10:40:21;;;;;;;10.80;2.47;;;;;;;19.51;nan;101496.09;5074222;28;20186;-75
2021/09/28 10:42:50;;;;;;;12.60;3.47;;;;;;;19.48;nan;101494.50;5074152;28;20191;-75
2021/09/28 10:45:28;;;;;;;10.50;2.43;;;;;;;19.63;nan;101498.69;5057423;28;20187;-76
2021/09/28 10:47:54;;;;;;;11.80;2.80;;;;;;;19.32;nan;101489.41;5074649;28;20167;-74
2021/09/28 10:50:28;;;;;;;12.27;2.40;;;;;;;20.33;nan;101521.03;5074920;28;20175;-76
2021/09/28 10:52:56;;;;;;;10.03;2.20;;;;;;;19.07;nan;101491.50;5056868;28;20617;-77
2021/09/28 10:55:26;;;;;;;13.23;2.63;;;;;;;19.99;nan;101523.78;5056268;28;20250;-75
2021/09/28 10:57:54;;;;;;;8.43;1.77;;;;;;;20.85;nan;101536.53;5074126;28;20167;-75
2021/09/28 11:00:21;;;;;;;8.73;1.77;;;;;;;21.62;nan;101522.63;5073956;28;20171;-76
2021/09/28 11:02:54;;;;;;;9.23;2.17;;;;;;;20.49;nan;101494.41;5039306;28;20210;-75
2021/09/28 11:05:32;;;;;;;7.50;1.67;;;;;;;21.47;nan;101522.97;5055874;28;20207;-76
2021/09/28 11:07:58;;;;;;;8.67;1.67;;;;;;;23.26;nan;101507.41;5056222;28;20193;-76
2021/09/28 11:10:24;;;;;;;6.63;1.80;;;;;;;24.00;nan;101503.84;5056202;28;20203;-76
2021/09/28 11:12:49;;;;;;;9.63;1.93;;;;;;;24.84;nan;101488.03;5055883;28;20230;-76
2021/09/28 11:15:26;;;;;;;7.37;1.80;;;;;;;27.42;nan;101487.38;5055967;28;20174;-76
2021/09/28 11:17:51;;;;;;;7.87;1.40;;;;;;;27.39;nan;101443.88;5039254;28;20183;-76
2021/09/28 11:20:25;;;;;;;7.37;1.80;;;;;;;24.84;nan;101449.81;5073830;28;20636;-75
2021/09/28 11:22:55;;;;;;;7.60;1.83;;;;;;;25.34;nan;101472.91;5055772;28;20202;-75
2021/09/28 11:25:20;;;;;;;9.07;1.60;;;;;;;24.21;nan;101425.38;5055561;28;20671;-75
2021/09/28 11:28:08;;;;;;;6.17;1.53;;;;;;;26.00;nan;101436.63;5055983;28;20182;-75
2021/09/28 11:30:35;;;;;;;7.97;1.70;;;;;;;25.94;nan;101442.78;5074836;28;20163;-76